Time;durP1;ratioP1;P1;durP2;ratioP2;P2;SDS_P1;SDS_P2;PMS_P1;PMS_P2;Temp;Humidity;BMP_temperature;BMP_pressure;BME280_temperature;BME280_humidity;BME280_pressure;Samples;Min_cycle;Max_cycle;Signal;HPM_P1;HPM_P2
2023/06/05 00:00:52;;;;;;;6.13;3.50;;;11.50;99.90;;;;;;5040276;28;20318;-77
2023/06/05 00:03:20;;;;;;;5.70;3.40;;;11.40;99.90;;;;;;5036251;28;20257;-77
2023/06/05 00:05:47;;;;;;;5.70;3.60;;;11.40;99.90;;;;;;5040632;28;20224;-77
2023/06/05 00:08:15;;;;;;;6.57;3.50;;;11.30;99.90;;;;;;5047258;28;20334;-77
2023/06/05 00:10:41;;;;;;;5.77;3.47;;;11.30;99.90;;;;;;5046568;28;20235;-77
2023/06/05 00:13:08;;;;;;;7.37;3.40;;;11.30;99.90;;;;;;5039721;28;20337;-77
2023/06/05 00:15:37;;;;;;;5.33;3.87;;;11.20;99.90;;;;;;5045315;28;21168;-77
2023/06/05 00:18:04;;;;;;;6.07;3.67;;;11.20;99.90;;;;;;5043761;28;21002;-77
2023/06/05 00:20:32;;;;;;;6.20;3.53;;;11.10;99.90;;;;;;5044997;28;20255;-77
2023/06/05 00:22:59;;;;;;;5.03;3.10;;;11.10;99.90;;;;;;5050443;28;20825;-76
2023/06/05 00:25:25;;;;;;;5.93;3.20;;;11.10;99.90;;;;;;5043139;28;20239;-77
2023/06/05 00:27:52;;;;;;;5.63;3.53;;;11.10;99.90;;;;;;5046724;28;20222;-77
2023/06/05 00:30:19;;;;;;;4.73;3.67;;;11.00;99.90;;;;;;5046814;28;20289;-77
2023/06/05 00:32:46;;;;;;;5.50;3.50;;;11.00;99.90;;;;;;5043818;28;20228;-77
2023/06/05 00:35:13;;;;;;;5.33;3.00;;;11.00;99.90;;;;;;5046433;28;20714;-77
2023/06/05 00:37:41;;;;;;;5.60;3.77;;;10.90;99.90;;;;;;5043982;28;20478;-77
2023/06/05 00:40:08;;;;;;;5.53;3.53;;;10.90;99.90;;;;;;5039664;28;20216;-77
2023/06/05 00:42:35;;;;;;;6.20;3.47;;;10.80;99.90;;;;;;5047386;28;20250;-77
2023/06/05 00:45:02;;;;;;;4.90;3.47;;;10.80;99.90;;;;;;5045325;28;20232;-77
2023/06/05 00:47:29;;;;;;;5.77;3.77;;;10.80;99.90;;;;;;5039680;28;20230;-77
2023/06/05 00:49:57;;;;;;;5.17;3.43;;;10.70;99.90;;;;;;5042941;28;20297;-77
2023/06/05 00:52:24;;;;;;;7.70;3.80;;;10.70;99.90;;;;;;5054852;28;21304;-77
2023/06/05 00:54:52;;;;;;;6.27;3.87;;;10.70;99.90;;;;;;5041665;28;20304;-76
2023/06/05 00:57:19;;;;;;;6.27;3.47;;;10.70;99.90;;;;;;5038344;28;20722;-76
2023/06/05 00:59:46;;;;;;;7.70;3.70;;;10.60;99.90;;;;;;5039097;28;20225;-77
2023/06/05 01:02:14;;;;;;;4.93;3.33;;;10.60;99.90;;;;;;5042897;28;20224;-77
2023/06/05 01:04:43;;;;;;;5.70;3.70;;;10.60;99.90;;;;;;5040312;28;20232;-77
2023/06/05 01:07:10;;;;;;;4.83;3.77;;;10.50;99.90;;;;;;5040457;28;20250;-77
2023/06/05 01:09:37;;;;;;;6.70;4.00;;;10.50;99.90;;;;;;5040724;28;20580;-77
2023/06/05 01:12:12;;;;;;;5.73;3.80;;;10.50;99.90;;;;;;5044213;28;20242;-77
2023/06/05 01:14:40;;;;;;;6.57;3.80;;;10.50;99.90;;;;;;5043257;28;20230;-77
2023/06/05 01:17:10;;;;;;;6.33;3.53;;;10.50;99.90;;;;;;5043059;28;20473;-77
2023/06/05 01:19:39;;;;;;;6.00;3.90;;;10.40;99.90;;;;;;5047767;28;20218;-77
2023/06/05 01:22:06;;;;;;;6.10;3.90;;;10.40;99.90;;;;;;5045102;28;21199;-78
2023/06/05 01:24:35;;;;;;;4.80;3.47;;;10.30;99.90;;;;;;5052140;28;20233;-77
2023/06/05 01:27:08;;;;;;;6.33;4.00;;;10.30;99.90;;;;;;5043511;28;20216;-77
2023/06/05 01:29:41;;;;;;;7.37;3.93;;;10.20;99.90;;;;;;5040662;28;20444;-77
2023/06/05 01:32:16;;;;;;;6.27;3.60;;;10.20;99.90;;;;;;5039851;28;20261;-77
2023/06/05 01:34:44;;;;;;;7.13;4.47;;;10.20;99.90;;;;;;5043676;28;20230;-77
2023/06/05 01:37:14;;;;;;;7.50;4.30;;;10.20;99.90;;;;;;5038482;28;20243;-77
2023/06/05 01:39:43;;;;;;;6.37;3.90;;;10.10;99.90;;;;;;5039827;28;20344;-77
2023/06/05 01:42:11;;;;;;;7.13;4.23;;;10.10;99.90;;;;;;5043624;28;20216;-76
2023/06/05 01:44:38;;;;;;;8.87;4.23;;;10.10;99.90;;;;;;5032967;28;20321;-77
2023/06/05 01:47:07;;;;;;;7.80;3.87;;;10.00;99.90;;;;;;5038383;28;20957;-77
2023/06/05 01:49:33;;;;;;;5.97;4.30;;;10.00;99.90;;;;;;5041064;28;20209;-77
2023/06/05 01:52:00;;;;;;;7.93;4.67;;;10.00;99.90;;;;;;5042784;28;20228;-77
2023/06/05 01:54:28;;;;;;;6.17;4.37;;;9.90;99.90;;;;;;5040984;28;20698;-77
2023/06/05 01:56:56;;;;;;;7.27;4.63;;;9.90;99.90;;;;;;5044343;28;20223;-77
2023/06/05 01:59:23;;;;;;;7.03;4.70;;;9.90;99.90;;;;;;5042377;28;20285;-77
2023/06/05 02:01:50;;;;;;;7.30;4.70;;;9.90;99.90;;;;;;5042817;28;20644;-77
2023/06/05 02:04:18;;;;;;;9.63;4.23;;;9.80;99.90;;;;;;5047118;28;20808;-77
2023/06/05 02:06:45;;;;;;;7.40;4.87;;;9.80;99.90;;;;;;5036284;28;20223;-77
2023/06/05 02:09:13;;;;;;;9.83;4.70;;;9.80;99.90;;;;;;5040897;28;20223;-77
2023/06/05 02:11:42;;;;;;;8.13;4.90;;;9.70;99.90;;;;;;5043984;28;20872;-77
2023/06/05 02:14:13;;;;;;;7.47;5.07;;;9.70;99.90;;;;;;5046650;28;20227;-77
2023/06/05 02:16:41;;;;;;;6.47;4.43;;;9.70;99.90;;;;;;5046807;28;20223;-77
2023/06/05 02:19:09;;;;;;;5.83;4.60;;;9.60;99.90;;;;;;5038738;28;20231;-77
2023/06/05 02:21:36;;;;;;;10.73;5.30;;;9.60;99.90;;;;;;5041428;28;20225;-77
2023/06/05 02:24:04;;;;;;;7.40;4.80;;;9.60;99.90;;;;;;5042406;28;20761;-77
2023/06/05 02:26:31;;;;;;;8.50;5.10;;;9.60;99.90;;;;;;5040920;28;20220;-76
2023/06/05 02:28:58;;;;;;;6.27;4.90;;;9.50;99.90;;;;;;5042872;28;20231;-76
2023/06/05 02:31:28;;;;;;;9.33;5.13;;;9.50;99.90;;;;;;5037396;28;20278;-77
2023/06/05 02:33:57;;;;;;;9.70;4.80;;;9.50;99.90;;;;;;5036233;28;20274;-77
2023/06/05 02:36:24;;;;;;;6.07;4.73;;;9.40;99.90;;;;;;5038306;28;20698;-77
2023/06/05 02:38:52;;;;;;;6.77;5.23;;;9.40;99.90;;;;;;5035953;28;20311;-77
2023/06/05 02:41:21;;;;;;;7.30;5.23;;;9.40;99.90;;;;;;5035468;28;20254;-78
2023/06/05 02:43:48;;;;;;;6.93;4.80;;;9.40;99.90;;;;;;5038014;28;20282;-78
2023/06/05 02:46:15;;;;;;;7.87;5.60;;;9.40;99.90;;;;;;5032350;28;20296;-77
2023/06/05 02:48:43;;;;;;;7.50;5.40;;;9.30;99.90;;;;;;5045231;28;22133;-77
2023/06/05 02:51:11;;;;;;;7.07;5.30;;;9.30;99.90;;;;;;5044368;28;21009;-77
2023/06/05 02:53:40;;;;;;;7.87;5.07;;;9.20;99.90;;;;;;5045140;28;20230;-77
2023/06/05 02:56:07;;;;;;;12.87;5.73;;;9.20;99.90;;;;;;5039460;28;20299;-77
2023/06/05 02:58:34;;;;;;;7.73;5.43;;;9.20;99.90;;;;;;5042442;28;20227;-77
2023/06/05 03:01:02;;;;;;;8.17;5.23;;;9.20;99.90;;;;;;5045249;28;20310;-77
2023/06/05 03:03:33;;;;;;;8.50;5.67;;;9.20;99.90;;;;;;5040370;28;20719;-77
2023/06/05 03:06:04;;;;;;;9.97;6.30;;;9.10;99.90;;;;;;5046169;28;20222;-77
2023/06/05 03:08:35;;;;;;;10.03;5.97;;;9.10;99.90;;;;;;5046535;28;20251;-77
2023/06/05 03:11:02;;;;;;;8.30;6.50;;;9.10;99.90;;;;;;5045570;28;20224;-77
2023/06/05 03:13:30;;;;;;;7.93;6.03;;;9.10;99.90;;;;;;5021406;28;20227;-77
2023/06/05 03:16:01;;;;;;;8.83;6.47;;;9.10;99.90;;;;;;5036450;28;20232;-76
2023/06/05 03:18:30;;;;;;;9.63;6.63;;;9.10;99.90;;;;;;5039918;28;20216;-77
2023/06/05 03:21:02;;;;;;;8.07;6.20;;;9.10;99.90;;;;;;5044301;28;20278;-77
2023/06/05 03:23:29;;;;;;;12.70;7.20;;;9.10;99.90;;;;;;5048950;28;20223;-77
2023/06/05 03:25:59;;;;;;;11.27;6.93;;;9.00;99.90;;;;;;5039988;28;20224;-77
2023/06/05 03:28:27;;;;;;;10.80;6.90;;;9.10;99.90;;;;;;5049061;28;20699;-76
2023/06/05 03:30:57;;;;;;;11.80;7.17;;;9.10;99.90;;;;;;5041931;28;20235;-76
2023/06/05 03:33:28;;;;;;;12.27;6.37;;;9.10;99.90;;;;;;5039486;28;20215;-77
2023/06/05 03:35:55;;;;;;;11.43;6.90;;;9.00;99.90;;;;;;5046734;28;20220;-74
2023/06/05 03:38:25;;;;;;;9.57;6.83;;;9.10;99.90;;;;;;5045313;28;25181;-74
2023/06/05 03:40:52;;;;;;;11.37;6.60;;;9.10;99.90;;;;;;5045301;28;20230;-74
2023/06/05 03:43:21;;;;;;;12.30;7.10;;;9.10;99.90;;;;;;5045419;28;20285;-73
2023/06/05 03:45:48;;;;;;;11.57;8.00;;;9.10;99.90;;;;;;5046843;28;20315;-74
2023/06/05 03:48:19;;;;;;;10.53;7.50;;;9.10;99.90;;;;;;5034853;28;20213;-74
2023/06/05 03:50:46;;;;;;;11.60;7.07;;;9.10;99.90;;;;;;5027087;28;20228;-74
2023/06/05 03:53:13;;;;;;;9.47;7.20;;;9.20;99.90;;;;;;5026383;28;20228;-74
2023/06/05 03:55:41;;;;;;;12.27;7.60;;;9.20;99.90;;;;;;5025338;28;20297;-75
2023/06/05 03:58:14;;;;;;;10.60;8.03;;;9.20;99.90;;;;;;5025213;28;20877;-74
2023/06/05 04:00:42;;;;;;;10.00;7.27;;;9.20;99.90;;;;;;5024367;28;20225;-74
2023/06/05 04:03:10;;;;;;;14.03;8.53;;;9.30;99.90;;;;;;5025022;28;20221;-74
2023/06/05 04:05:38;;;;;;;10.20;7.60;;;9.30;99.90;;;;;;5045225;28;20232;-75
2023/06/05 04:08:06;;;;;;;9.57;7.83;;;9.30;99.90;;;;;;5044615;28;20220;-75
2023/06/05 04:10:33;;;;;;;10.30;7.73;;;9.40;99.90;;;;;;5044846;28;20219;-75
2023/06/05 04:13:01;;;;;;;9.07;6.90;;;9.40;99.90;;;;;;5044967;28;20247;-74
2023/06/05 04:15:29;;;;;;;12.43;7.43;;;9.50;99.90;;;;;;5044076;28;20289;-75
2023/06/05 04:17:57;;;;;;;13.07;8.10;;;9.50;99.90;;;;;;5037848;28;20902;-74
2023/06/05 04:20:24;;;;;;;9.63;7.33;;;9.60;99.90;;;;;;5041044;28;20247;-75
2023/06/05 04:22:51;;;;;;;9.23;7.33;;;9.60;99.90;;;;;;5042351;28;20216;-74
2023/06/05 04:25:18;;;;;;;10.60;7.43;;;9.70;99.90;;;;;;5044206;28;20219;-74
2023/06/05 04:27:50;;;;;;;11.83;7.60;;;9.70;99.90;;;;;;5038447;28;20313;-75
2023/06/05 04:30:18;;;;;;;10.43;7.83;;;9.80;99.90;;;;;;5044159;28;20816;-74
2023/06/05 04:32:53;;;;;;;10.10;7.53;;;9.80;99.90;;;;;;5044521;28;20224;-75
2023/06/05 04:35:21;;;;;;;10.87;6.97;;;9.90;99.90;;;;;;5042144;28;20225;-75
2023/06/05 04:37:48;;;;;;;13.80;8.37;;;9.90;99.90;;;;;;5039877;28;20212;-75
2023/06/05 04:40:17;;;;;;;11.17;7.70;;;9.90;99.90;;;;;;5034032;28;20303;-74
2023/06/05 04:42:45;;;;;;;13.43;7.87;;;10.00;99.90;;;;;;5043381;28;20223;-74
2023/06/05 04:45:13;;;;;;;13.23;8.57;;;10.00;99.90;;;;;;5042480;28;20767;-74
2023/06/05 04:47:45;;;;;;;10.80;8.20;;;10.00;99.90;;;;;;5046803;28;20868;-74
2023/06/05 04:50:24;;;;;;;10.97;8.20;;;10.10;99.90;;;;;;5040499;28;20280;-74
2023/06/05 04:52:52;;;;;;;11.30;8.17;;;10.10;99.90;;;;;;5040646;28;20315;-74
2023/06/05 04:55:22;;;;;;;12.93;8.10;;;10.20;99.90;;;;;;5032879;28;20240;-77
2023/06/05 04:57:53;;;;;;;9.97;8.03;;;10.20;99.90;;;;;;5041264;28;20226;-76
2023/06/05 05:00:20;;;;;;;14.17;8.37;;;10.30;99.90;;;;;;5042902;28;20231;-76
2023/06/05 05:02:50;;;;;;;17.57;11.53;;;10.30;99.90;;;;;;5036846;28;20229;-76
2023/06/05 05:05:18;;;;;;;10.80;7.90;;;10.40;99.90;;;;;;5043385;28;20220;-76
2023/06/05 05:07:46;;;;;;;12.27;8.57;;;10.40;99.90;;;;;;5034864;28;20224;-74
2023/06/05 05:10:14;;;;;;;13.77;8.70;;;10.50;99.90;;;;;;5039632;28;20254;-74
2023/06/05 05:12:42;;;;;;;11.27;8.43;;;10.50;99.90;;;;;;5038180;28;20231;-74
2023/06/05 05:15:09;;;;;;;11.03;8.20;;;10.60;99.90;;;;;;5043110;28;20230;-74
2023/06/05 05:17:36;;;;;;;13.30;8.40;;;10.60;99.90;;;;;;5042648;28;20212;-74
2023/06/05 05:20:06;;;;;;;9.83;7.77;;;10.70;99.90;;;;;;5045486;28;20265;-74
2023/06/05 05:22:34;;;;;;;10.53;7.97;;;10.70;99.90;;;;;;5034005;28;20253;-74
2023/06/05 05:25:01;;;;;;;12.43;9.83;;;10.80;99.90;;;;;;5045433;28;20226;-74
2023/06/05 05:27:28;;;;;;;13.67;10.23;;;10.80;99.90;;;;;;5041713;28;20334;-74
2023/06/05 05:29:56;;;;;;;13.23;8.00;;;10.90;99.90;;;;;;5044692;28;20248;-74
2023/06/05 05:32:23;;;;;;;12.03;8.53;;;10.90;99.90;;;;;;5044013;28;20282;-74
2023/06/05 05:34:51;;;;;;;39.77;25.53;;;11.00;99.90;;;;;;5043545;28;20225;-74
2023/06/05 05:37:19;;;;;;;18.87;9.17;;;11.10;99.90;;;;;;5044544;28;20212;-74
2023/06/05 05:39:46;;;;;;;11.87;7.80;;;11.10;99.90;;;;;;5045408;28;20317;-74
2023/06/05 05:42:13;;;;;;;9.67;7.73;;;11.20;99.90;;;;;;5038286;28;20302;-74
2023/06/05 05:44:42;;;;;;;9.90;7.47;;;11.20;99.90;;;;;;5035254;28;20238;-74
2023/06/05 05:47:08;;;;;;;9.90;7.80;;;11.30;99.90;;;;;;5037821;28;20223;-74
2023/06/05 05:49:35;;;;;;;10.63;6.97;;;11.40;99.90;;;;;;5043231;28;20391;-74
2023/06/05 05:52:02;;;;;;;13.07;7.90;;;11.50;99.90;;;;;;5050037;28;20223;-74
2023/06/05 05:54:30;;;;;;;12.10;7.57;;;11.50;99.90;;;;;;5042403;28;20232;-75
2023/06/05 05:56:57;;;;;;;10.53;7.20;;;11.70;99.90;;;;;;5042525;28;20273;-74
2023/06/05 05:59:24;;;;;;;11.63;7.87;;;11.70;99.90;;;;;;5044285;28;20233;-75
2023/06/05 06:01:51;;;;;;;12.60;8.20;;;11.80;99.90;;;;;;5029957;28;20221;-75
2023/06/05 06:04:18;;;;;;;10.93;7.67;;;11.90;99.90;;;;;;5042155;28;20289;-74
2023/06/05 06:06:47;;;;;;;11.00;7.57;;;12.00;99.90;;;;;;5043082;28;20224;-74
2023/06/05 06:09:17;;;;;;;10.40;7.43;;;12.10;99.90;;;;;;5047985;28;20256;-74
2023/06/05 06:11:46;;;;;;;11.23;8.00;;;12.10;99.90;;;;;;5045479;28;20267;-74
2023/06/05 06:14:12;;;;;;;13.80;7.83;;;12.20;99.90;;;;;;5043883;28;20218;-74
2023/06/05 06:16:40;;;;;;;9.97;7.73;;;12.30;99.90;;;;;;5043848;28;20250;-74
2023/06/05 06:19:06;;;;;;;12.50;7.70;;;12.40;99.90;;;;;;5039505;28;20214;-75
2023/06/05 06:21:33;;;;;;;11.73;8.10;;;12.50;99.90;;;;;;5049568;28;20215;-75
2023/06/05 06:24:01;;;;;;;12.30;7.10;;;12.60;99.90;;;;;;5058981;28;20226;-75
2023/06/05 06:26:27;;;;;;;9.53;6.80;;;12.70;99.90;;;;;;5039604;28;20326;-75
2023/06/05 06:28:57;;;;;;;10.47;7.33;;;12.80;99.90;;;;;;5055867;28;20222;-75
2023/06/05 06:31:24;;;;;;;10.00;6.30;;;13.10;99.90;;;;;;5043317;28;20252;-76
2023/06/05 06:33:50;;;;;;;11.00;6.73;;;13.30;99.90;;;;;;5042608;28;20224;-75
2023/06/05 06:36:17;;;;;;;10.63;7.23;;;13.60;99.90;;;;;;5040421;28;20224;-75
2023/06/05 06:38:44;;;;;;;12.27;6.90;;;13.90;99.90;;;;;;5043215;28;20226;-75
2023/06/05 06:41:11;;;;;;;8.87;6.60;;;14.10;99.90;;;;;;5049867;28;20223;-75
2023/06/05 06:43:37;;;;;;;11.93;6.90;;;14.30;99.90;;;;;;5042901;28;20234;-77
2023/06/05 06:46:06;;;;;;;12.40;6.40;;;14.50;99.90;;;;;;5048542;28;20781;-75
2023/06/05 06:48:33;;;;;;;82.33;43.10;;;14.60;99.90;;;;;;5051608;28;20636;-76
2023/06/05 06:51:00;;;;;;;14.23;7.20;;;14.80;99.90;;;;;;5060716;28;20226;-76
2023/06/05 06:53:26;;;;;;;9.70;6.83;;;14.90;99.90;;;;;;5053023;28;20227;-77
2023/06/05 06:55:53;;;;;;;30.37;18.00;;;14.90;99.90;;;;;;5050189;28;20691;-74
2023/06/05 06:58:20;;;;;;;10.00;5.57;;;15.00;99.90;;;;;;5051979;28;20219;-76
2023/06/05 07:00:49;;;;;;;7.77;4.70;;;15.20;99.90;;;;;;5050031;28;20226;-75
2023/06/05 07:03:17;;;;;;;10.38;5.03;;;15.40;99.90;;;;;;5047446;28;20286;-76
2023/06/05 07:05:43;;;;;;;9.45;4.35;;;15.80;99.90;;;;;;5043075;28;20229;-77
2023/06/05 07:08:10;;;;;;;8.48;4.53;;;16.40;99.90;;;;;;5046861;28;20220;-77
2023/06/05 07:10:37;;;;;;;7.75;4.47;;;17.10;99.90;;;;;;5042137;28;20219;-74
2023/06/05 07:13:04;;;;;;;7.18;4.00;;;17.80;99.90;;;;;;5038566;28;20728;-75
2023/06/05 07:15:30;;;;;;;8.23;4.00;;;18.50;99.90;;;;;;5050357;28;20232;-75
2023/06/05 07:17:57;;;;;;;8.02;4.03;;;19.10;99.90;;;;;;5051101;28;20216;-78
2023/06/05 07:20:25;;;;;;;7.18;4.00;;;19.70;99.90;;;;;;5047594;28;20231;-76
2023/06/05 07:22:52;;;;;;;7.70;4.53;;;20.30;99.90;;;;;;5042777;28;20227;-76
2023/06/05 07:25:20;;;;;;;8.95;3.85;;;20.90;99.90;;;;;;5036137;28;20224;-76
2023/06/05 07:27:47;;;;;;;6.82;3.38;;;21.50;99.50;;;;;;5036286;28;20301;-76
2023/06/05 07:30:14;;;;;;;8.32;3.35;;;22.20;98.60;;;;;;5039293;28;20216;-76
2023/06/05 07:32:42;;;;;;;5.80;3.33;;;22.80;97.50;;;;;;5044205;28;20227;-76
2023/06/05 07:35:09;;;;;;;4.72;2.85;;;23.30;96.70;;;;;;5035131;28;20251;-76
2023/06/05 07:37:37;;;;;;;7.70;3.10;;;23.80;95.20;;;;;;5051333;28;20594;-76
2023/06/05 07:40:05;;;;;;;6.20;3.35;;;24.30;94.30;;;;;;5049029;28;20865;-76
2023/06/05 07:42:32;;;;;;;4.80;3.53;;;24.70;93.40;;;;;;5050978;28;20305;-76
2023/06/05 07:44:58;;;;;;;5.07;2.97;;;25.20;92.90;;;;;;5042227;28;20239;-77
2023/06/05 07:47:25;;;;;;;5.57;2.55;;;25.70;92.20;;;;;;5041499;28;20725;-76
2023/06/05 07:49:59;;;;;;;6.03;2.75;;;26.20;90.70;;;;;;5038242;28;20235;-76
2023/06/05 07:52:26;;;;;;;4.00;2.45;;;26.70;87.10;;;;;;5050627;28;20293;-76
2023/06/05 07:54:54;;;;;;;4.93;2.47;;;27.10;86.40;;;;;;5042437;28;20242;-76
2023/06/05 07:57:21;;;;;;;4.95;2.85;;;27.50;84.00;;;;;;5040521;28;20646;-76
2023/06/05 07:59:49;;;;;;;6.88;3.00;;;27.90;82.40;;;;;;5026549;28;20282;-76
2023/06/05 08:02:16;;;;;;;4.38;2.60;;;28.10;79.40;;;;;;5029579;28;20216;-75
2023/06/05 08:04:43;;;;;;;4.60;2.83;;;28.20;77.20;;;;;;5043272;28;20682;-75
2023/06/05 08:07:09;;;;;;;3.17;2.50;;;28.20;76.60;;;;;;5040635;28;20224;-75
2023/06/05 08:09:37;;;;;;;5.57;2.90;;;28.30;76.10;;;;;;5045974;28;20274;-76
2023/06/05 08:12:06;;;;;;;5.05;2.50;;;28.30;75.00;;;;;;5045280;28;20232;-76
2023/06/05 08:14:34;;;;;;;3.83;2.65;;;28.40;72.50;;;;;;5039579;28;20225;-76
2023/06/05 08:17:01;;;;;;;4.65;2.60;;;28.50;71.80;;;;;;5038000;28;20781;-76
2023/06/05 08:19:28;;;;;;;5.75;2.90;;;28.50;71.60;;;;;;5038635;28;20225;-76
2023/06/05 08:21:56;;;;;;;4.35;2.67;;;28.50;71.20;;;;;;5051565;28;20235;-76
2023/06/05 08:24:23;;;;;;;4.25;2.70;;;28.60;69.80;;;;;;5046045;28;20228;-76
2023/06/05 08:26:49;;;;;;;6.97;2.75;;;28.60;70.10;;;;;;5046082;28;20315;-76
2023/06/05 08:29:17;;;;;;;3.88;2.72;;;28.70;69.20;;;;;;5044902;28;20220;-76
2023/06/05 08:31:44;;;;;;;4.25;2.80;;;28.70;68.30;;;;;;5046005;28;20244;-76
2023/06/05 08:34:11;;;;;;;4.65;2.53;;;28.90;68.40;;;;;;5041923;28;20233;-76
2023/06/05 08:36:38;;;;;;;5.57;3.03;;;29.10;68.60;;;;;;5035644;28;20232;-76
2023/06/05 08:39:05;;;;;;;5.82;2.67;;;29.30;67.70;;;;;;5039472;28;20220;-76
2023/06/05 08:41:34;;;;;;;4.32;2.50;;;29.50;65.80;;;;;;5043137;28;20289;-76
2023/06/05 08:44:00;;;;;;;6.35;2.50;;;29.60;64.30;;;;;;5047023;28;20212;-76
2023/06/05 08:46:30;;;;;;;4.78;2.72;;;29.80;64.50;;;;;;5039345;28;20231;-76
2023/06/05 08:48:58;;;;;;;4.20;2.40;;;29.90;64.10;;;;;;5043718;28;20224;-76
2023/06/05 08:51:25;;;;;;;3.05;2.38;;;30.10;64.20;;;;;;5034699;28;20229;-76
2023/06/05 08:53:57;;;;;;;4.40;2.50;;;30.40;63.50;;;;;;5027924;28;20224;-76
2023/06/05 08:56:25;;;;;;;5.82;2.63;;;30.60;61.70;;;;;;5041150;28;20928;-76
2023/06/05 08:58:53;;;;;;;3.63;2.30;;;30.80;61.10;;;;;;5042891;28;20217;-77
2023/06/05 09:01:20;;;;;;;3.40;2.03;;;30.80;59.80;;;;;;5035639;28;20643;-77
2023/06/05 09:03:48;;;;;;;3.53;1.95;;;30.90;59.80;;;;;;5037035;28;20240;-77
2023/06/05 09:06:15;;;;;;;3.97;2.10;;;30.90;59.30;;;;;;5031261;28;20213;-77
2023/06/05 09:08:41;;;;;;;5.65;2.10;;;31.10;58.60;;;;;;5034891;28;20231;-76
2023/06/05 09:11:25;;;;;;;2.50;1.80;;;31.40;57.30;;;;;;5036574;28;20224;-77
2023/06/05 09:13:52;;;;;;;2.80;2.05;;;31.70;56.40;;;;;;5037659;28;20235;-76
2023/06/05 09:16:21;;;;;;;3.72;2.08;;;32.00;55.90;;;;;;5041985;28;20234;-76
2023/06/05 09:18:54;;;;;;;2.42;1.65;;;32.20;55.30;;;;;;5051530;28;20216;-76
2023/06/05 09:21:21;;;;;;;3.85;2.17;;;32.50;54.60;;;;;;5040115;28;20302;-76
2023/06/05 09:23:48;;;;;;;3.35;2.10;;;32.70;55.30;;;;;;5035428;28;20695;-76
2023/06/05 09:26:15;;;;;;;3.15;2.22;;;33.00;54.70;;;;;;5035177;28;20242;-77
2023/06/05 09:28:54;;;;;;;2.65;2.35;;;33.20;53.70;;;;;;5040685;28;20220;-77
2023/06/05 09:31:23;;;;;;;3.78;2.50;;;33.40;52.10;;;;;;5035785;28;20219;-77
2023/06/05 09:34:00;;;;;;;3.75;2.30;;;33.40;51.70;;;;;;5034693;28;20217;-76
2023/06/05 09:36:27;;;;;;;3.08;2.10;;;33.50;51.20;;;;;;5025667;23;20230;-77
2023/06/05 09:38:54;;;;;;;4.47;2.17;;;33.50;51.90;;;;;;5000621;28;20226;-77
2023/06/05 09:41:21;;;;;;;2.90;2.00;;;33.60;51.50;;;;;;5010999;28;20228;-77
2023/06/05 09:43:49;;;;;;;3.35;1.90;;;33.70;50.60;;;;;;5010305;28;20616;-77
2023/06/05 09:46:16;;;;;;;2.22;2.00;;;33.70;50.50;;;;;;4994158;28;20229;-77
2023/06/05 09:48:50;;;;;;;4.15;2.38;;;33.70;49.80;;;;;;4978487;28;20232;-77
2023/06/05 09:51:19;;;;;;;4.68;2.13;;;33.70;49.60;;;;;;4991707;28;20218;-77
2023/06/05 09:53:48;;;;;;;4.18;2.40;;;33.60;49.60;;;;;;4989675;28;20226;-77
2023/06/05 09:56:16;;;;;;;3.47;2.00;;;33.50;48.90;;;;;;4973437;28;20217;-77
2023/06/05 09:58:48;;;;;;;3.42;2.42;;;33.50;49.50;;;;;;4975223;28;20221;-77
2023/06/05 10:01:17;;;;;;;3.38;2.00;;;33.50;49.10;;;;;;4977002;28;20225;-78
2023/06/05 10:03:49;;;;;;;4.72;2.17;;;33.50;48.90;;;;;;4990091;28;20226;-77
2023/06/05 10:06:23;;;;;;;5.60;1.95;;;33.50;48.20;;;;;;4975082;28;20308;-78
2023/06/05 10:08:51;;;;;;;5.32;2.15;;;33.50;48.50;;;;;;4998009;28;20243;-78
2023/06/05 10:11:19;;;;;;;4.13;1.73;;;33.60;48.40;;;;;;4973518;28;20320;-78
2023/06/05 10:13:47;;;;;;;3.53;2.00;;;33.70;47.50;;;;;;4981268;28;20687;-77
2023/06/05 10:16:14;;;;;;;1.88;1.73;;;33.80;46.90;;;;;;4996952;28;20688;-77
2023/06/05 10:18:41;;;;;;;4.65;2.20;;;33.90;47.10;;;;;;4982510;28;20243;-78
2023/06/05 10:21:08;;;;;;;4.25;2.35;;;34.00;46.60;;;;;;4980453;28;20242;-77
2023/06/05 10:23:37;;;;;;;2.70;1.75;;;34.10;46.70;;;;;;4980684;28;20229;-77
2023/06/05 10:26:12;;;;;;;3.45;1.80;;;34.20;46.00;;;;;;4980896;28;20229;-78
2023/06/05 10:28:50;;;;;;;4.32;1.98;;;34.30;46.10;;;;;;4974659;28;20240;-77
2023/06/05 10:31:31;;;;;;;2.90;1.80;;;34.30;45.40;;;;;;4991762;28;20240;-78
2023/06/05 10:34:07;;;;;;;4.00;1.95;;;34.20;44.80;;;;;;4987489;28;20935;-78
2023/06/05 10:37:03;;;;;;;2.88;1.85;;;34.20;44.80;;;;;;4996320;28;20742;-77
2023/06/05 10:39:33;;;;;;;3.45;2.00;;;34.10;44.70;;;;;;4975167;28;20251;-78
2023/06/05 10:41:59;;;;;;;7.30;1.98;;;34.00;45.10;;;;;;4976599;28;20285;-78
2023/06/05 10:44:42;;;;;;;2.65;1.85;;;33.90;45.00;;;;;;4978250;28;20331;-78
2023/06/05 10:47:46;;;;;;;2.53;1.95;;;33.80;44.90;;;;;;4974368;28;20336;-78
2023/06/05 10:50:27;;;;;;;2.80;1.90;;;33.60;44.40;;;;;;4994706;28;20217;-77
2023/06/05 10:52:57;;;;;;;3.22;1.80;;;33.50;44.90;;;;;;4995406;28;20348;-77
2023/06/05 10:55:27;;;;;;;2.35;1.90;;;33.50;44.80;;;;;;4996332;28;20252;-78
2023/06/05 10:58:06;;;;;;;4.43;2.13;;;33.50;44.40;;;;;;4979467;28;20230;-78
2023/06/05 11:00:34;;;;;;;3.33;2.08;;;33.50;43.40;;;;;;4979160;28;20264;-78
2023/06/05 11:03:01;;;;;;;3.53;1.65;;;33.50;43.60;;;;;;4983894;28;20232;-78
2023/06/05 11:05:28;;;;;;;3.88;1.70;;;33.50;43.10;;;;;;4998064;28;20225;-80
2023/06/05 11:08:15;;;;;;;2.60;1.88;;;33.50;43.90;;;;;;4979973;28;20257;-80
2023/06/05 11:11:05;;;;;;;3.65;1.75;;;33.50;43.40;;;;;;5002642;28;20236;-79
2023/06/05 11:13:58;;;;;;;4.40;1.88;;;33.60;43.10;;;;;;4984980;28;20226;-79
2023/06/05 11:16:29;;;;;;;6.80;2.05;;;33.60;43.70;;;;;;5007138;28;20241;-80
2023/06/05 11:19:17;;;;;;;3.20;1.73;;;33.60;43.50;;;;;;4988647;28;20240;-79
2023/06/05 11:22:08;;;;;;;2.80;1.77;;;33.70;43.40;;;;;;4989905;28;20217;-80
2023/06/05 11:24:36;;;;;;;3.10;1.70;;;33.50;42.90;;;;;;4989493;28;20271;-80
2023/06/05 11:27:05;;;;;;;2.72;1.63;;;33.50;42.80;;;;;;4990372;28;20228;-81
2023/06/05 11:29:33;;;;;;;5.75;1.77;;;33.40;42.90;;;;;;5001429;28;20295;-80
2023/06/05 11:32:00;;;;;;;3.47;2.10;;;33.40;43.50;;;;;;5002939;28;20218;-80
2023/06/05 11:34:29;;;;;;;3.38;1.83;;;33.40;43.30;;;;;;4986536;28;20240;-79
2023/06/05 11:36:57;;;;;;;4.38;1.80;;;33.50;43.00;;;;;;5004602;28;20229;-80
2023/06/05 11:39:29;;;;;;;4.38;1.88;;;33.60;43.10;;;;;;4981415;28;20241;-80
2023/06/05 11:41:56;;;;;;;2.55;1.75;;;33.60;42.60;;;;;;4987928;28;20272;-80
2023/06/05 11:44:35;;;;;;;4.40;2.00;;;33.70;42.50;;;;;;4995804;28;20339;-79
2023/06/05 11:47:02;;;;;;;2.38;1.77;;;33.70;41.50;;;;;;4994186;28;20229;-80
2023/06/05 11:49:30;;;;;;;2.92;1.90;;;33.80;41.90;;;;;;4983494;28;20225;-80
2023/06/05 11:51:57;;;;;;;2.22;1.77;;;33.80;41.50;;;;;;4984051;28;20221;-80
2023/06/05 11:54:29;;;;;;;1.98;1.70;;;33.70;41.40;;;;;;5004438;28;20700;-79
2023/06/05 11:57:10;;;;;;;3.10;1.80;;;33.70;41.40;;;;;;5006689;28;20390;-80
2023/06/05 11:59:38;;;;;;;2.55;1.98;;;33.70;40.90;;;;;;4985370;28;20238;-80
2023/06/05 12:02:06;;;;;;;2.53;1.70;;;33.80;40.80;;;;;;5003469;28;20220;-80
2023/06/05 12:04:34;;;;;;;4.18;1.80;;;33.80;41.40;;;;;;5003032;28;20291;-79
2023/06/05 12:07:01;;;;;;;2.13;1.65;;;33.70;40.60;;;;;;4987684;28;20224;-79
2023/06/05 12:09:28;;;;;;;3.30;2.10;;;33.60;40.30;;;;;;4998235;28;20234;-77
2023/06/05 12:12:07;;;;;;;3.17;1.80;;;33.40;40.60;;;;;;4986786;28;20228;-79
2023/06/05 12:14:35;;;;;;;3.40;1.75;;;33.10;39.60;;;;;;5002536;28;20260;-79
2023/06/05 12:17:09;;;;;;;3.67;2.00;;;32.60;40.00;;;;;;5003428;28;20224;-79
2023/06/05 12:19:36;;;;;;;2.55;1.60;;;32.10;40.90;;;;;;4976130;28;20297;-79
2023/06/05 12:22:04;;;;;;;4.78;1.60;;;31.70;41.00;;;;;;5001634;28;20229;-79
2023/06/05 12:24:32;;;;;;;2.17;1.75;;;31.40;41.80;;;;;;4984842;28;20965;-79
2023/06/05 12:27:00;;;;;;;3.13;2.10;;;31.20;41.70;;;;;;4985424;28;20251;-79
2023/06/05 12:29:29;;;;;;;3.63;1.70;;;31.10;41.50;;;;;;5000579;28;20590;-78
2023/06/05 12:31:57;;;;;;;4.45;1.85;;;31.00;42.10;;;;;;4978060;28;20253;-83
2023/06/05 12:34:42;;;;;;;3.30;1.80;;;30.90;42.30;;;;;;4999882;28;20402;-82
2023/06/05 12:37:08;;;;;;;4.50;1.75;;;30.70;42.40;;;;;;4982569;28;20225;-80
2023/06/05 12:39:36;;;;;;;3.40;1.58;;;30.50;42.50;;;;;;4983910;28;20233;-80
2023/06/05 12:42:03;;;;;;;3.70;1.60;;;30.40;42.30;;;;;;4986691;28;20241;-81
2023/06/05 12:44:29;;;;;;;2.97;1.90;;;30.30;42.90;;;;;;5003955;28;20879;-81
2023/06/05 12:46:57;;;;;;;3.88;1.90;;;30.30;43.10;;;;;;5003444;28;20218;-80
2023/06/05 12:49:24;;;;;;;2.08;1.67;;;30.50;43.80;;;;;;4980614;28;21673;-80
2023/06/05 12:51:51;;;;;;;3.40;1.70;;;30.70;42.20;;;;;;4992463;28;20221;-80
2023/06/05 12:54:19;;;;;;;3.72;1.90;;;30.80;42.10;;;;;;4993827;28;20213;-80